createdAt,value
2018-08-28T00:00:50.546Z,8.03
2018-08-28T00:03:18.409Z,5.90
2018-08-28T00:05:46.606Z,5.37
2018-08-28T00:08:14.571Z,4.60
2018-08-28T00:10:42.399Z,5.73
2018-08-28T00:13:16.564Z,6.93
2018-08-28T00:15:50.647Z,5.03
2018-08-28T00:18:18.785Z,4.60
2018-08-28T00:20:46.604Z,3.30
2018-08-28T00:23:20.824Z,5.60
2018-08-28T00:25:57.348Z,5.57
2018-08-28T00:28:33.774Z,4.27
2018-08-28T00:31:10.147Z,4.90
2018-08-28T00:33:38.016Z,4.07
2018-08-28T00:36:05.909Z,6.30
2018-08-28T00:38:33.747Z,5.20
2018-08-28T00:41:01.525Z,4.90
2018-08-28T00:43:29.335Z,5.30
2018-08-28T00:45:57.434Z,5.50
2018-08-28T00:48:25.253Z,5.30
2018-08-28T00:50:53.700Z,7.20
2018-08-28T00:53:21.563Z,8.53
2018-08-28T00:55:49.396Z,4.07
2018-08-28T00:58:17.578Z,4.87
2018-08-28T01:00:45.463Z,5.40
2018-08-28T01:03:13.404Z,6.43
2018-08-28T01:05:41.232Z,5.40
2018-08-28T01:08:09.353Z,5.23
2018-08-28T01:10:37.937Z,5.57
2018-08-28T01:13:06.209Z,15.23
2018-08-28T01:15:34.070Z,4.80
2018-08-28T01:18:02.041Z,4.43
2018-08-28T01:20:30.786Z,6.70
2018-08-28T01:23:04.795Z,5.20
2018-08-28T01:25:38.684Z,5.87
2018-08-28T01:28:06.514Z,3.13
2018-08-28T01:30:35.097Z,3.93
2018-08-28T01:33:05.330Z,4.30
2018-08-28T01:35:34.680Z,4.70
2018-08-28T01:38:02.547Z,4.93
2018-08-28T01:40:30.765Z,6.90
2018-08-28T01:42:59.140Z,4.90
2018-08-28T01:45:27.045Z,5.53
2018-08-28T01:47:54.846Z,4.87
2018-08-28T01:50:22.841Z,4.53
2018-08-28T01:52:50.764Z,5.30
2018-08-28T01:55:18.631Z,5.73
2018-08-28T01:57:46.767Z,5.27
2018-08-28T02:00:14.587Z,5.33
2018-08-28T02:02:42.445Z,5.23
2018-08-28T02:05:10.382Z,6.13
2018-08-28T02:07:38.220Z,5.03
2018-08-28T02:10:07.124Z,6.03
2018-08-28T02:12:35.003Z,12.33
2018-08-28T02:15:02.980Z,5.83
2018-08-28T02:17:30.787Z,10.17
2018-08-28T02:19:58.634Z,8.67
2018-08-28T02:22:26.497Z,6.33
2018-08-28T02:24:54.338Z,6.23
2018-08-28T02:27:22.211Z,9.17
2018-08-28T02:29:50.040Z,5.20
2018-08-28T02:32:18.630Z,4.67
2018-08-28T02:34:46.468Z,4.30
2018-08-28T02:37:14.330Z,5.70
2018-08-28T02:39:42.325Z,4.00
2018-08-28T02:42:10.179Z,5.90
2018-08-28T02:44:38.020Z,5.60
2018-08-28T02:47:06.892Z,6.40
2018-08-28T02:49:35.037Z,12.50
2018-08-28T02:52:04.390Z,7.40
2018-08-28T02:54:32.555Z,8.47
2018-08-28T02:57:00.393Z,5.73
2018-08-28T02:59:28.262Z,8.87
2018-08-28T03:01:56.093Z,4.37
2018-08-28T03:04:23.974Z,11.20
2018-08-28T03:06:52.135Z,6.27
2018-08-28T03:09:20.001Z,4.50
2018-08-28T03:11:47.847Z,9.83
2018-08-28T03:14:16.381Z,6.30
2018-08-28T03:16:44.246Z,5.97
2018-08-28T03:19:12.410Z,8.17
2018-08-28T03:21:40.355Z,11.53
2018-08-28T03:24:08.262Z,5.10
2018-08-28T03:26:36.092Z,6.97
2018-08-28T03:29:04.399Z,6.27
2018-08-28T03:31:32.216Z,8.17
2018-08-28T03:34:00.237Z,9.60
2018-08-28T03:36:28.050Z,5.53
2018-08-28T03:38:55.923Z,4.07
2018-08-28T03:41:24.130Z,5.50
2018-08-28T03:43:51.978Z,6.13
2018-08-28T03:46:19.792Z,7.60
2018-08-28T03:48:48.997Z,9.67
2018-08-28T03:51:16.834Z,5.43
2018-08-28T03:53:44.712Z,6.27
2018-08-28T03:56:12.777Z,12.43
2018-08-28T03:58:43.427Z,5.80
2018-08-28T04:01:11.600Z,9.70
2018-08-28T04:03:39.926Z,4.97
2018-08-28T04:06:07.763Z,6.57
2018-08-28T04:08:35.599Z,6.47
2018-08-28T04:11:03.508Z,7.27
2018-08-28T04:13:31.496Z,8.43
2018-08-28T04:15:59.352Z,6.10
2018-08-28T04:18:27.226Z,10.07
2018-08-28T04:21:02.574Z,8.00
2018-08-28T04:23:30.450Z,11.03
2018-08-28T04:25:59.060Z,7.50
2018-08-28T04:28:28.337Z,3.93
2018-08-28T04:30:56.198Z,10.23
2018-08-28T04:33:24.059Z,6.47
2018-08-28T04:35:51.845Z,6.97
2018-08-28T04:38:19.765Z,5.43
2018-08-28T04:40:47.693Z,7.97
2018-08-28T04:43:15.545Z,6.03
2018-08-28T04:45:43.413Z,5.23
2018-08-28T04:48:11.336Z,12.20
2018-08-28T04:50:39.236Z,8.60
2018-08-28T04:53:07.885Z,5.70
2018-08-28T04:55:35.719Z,7.90
2018-08-28T04:58:03.611Z,7.80
2018-08-28T05:00:31.776Z,5.40
2018-08-28T05:02:59.636Z,11.07
2018-08-28T05:05:28.067Z,7.03
2018-08-28T05:07:55.911Z,7.20
2018-08-28T05:10:24.181Z,12.30
2018-08-28T05:12:52.234Z,7.50
2018-08-28T05:15:20.419Z,7.13
2018-08-28T05:17:48.447Z,6.50
2018-08-28T05:20:16.999Z,9.17
2018-08-28T05:22:44.870Z,10.10
2018-08-28T05:25:12.809Z,8.70
2018-08-28T05:27:40.658Z,6.97
2018-08-28T05:30:08.597Z,8.13
2018-08-28T05:32:36.533Z,6.47
2018-08-28T05:35:05.167Z,5.90
2018-08-28T05:37:33.008Z,8.40
2018-08-28T05:40:01.418Z,5.40
2018-08-28T05:42:29.278Z,7.67
2018-08-28T05:44:57.121Z,8.13
2018-08-28T05:47:25.028Z,18.27
2018-08-28T05:49:52.894Z,12.60
2018-08-28T05:52:20.745Z,8.93
2018-08-28T05:54:49.280Z,8.37
2018-08-28T05:57:17.173Z,9.67
2018-08-28T05:59:45.365Z,9.33
2018-08-28T06:02:13.184Z,13.33
2018-08-28T06:04:41.125Z,22.47
2018-08-28T06:07:08.986Z,7.87
2018-08-28T06:09:37.086Z,12.60
2018-08-28T06:12:05.786Z,13.33
2018-08-28T06:14:33.634Z,10.57
2018-08-28T06:17:01.501Z,13.37
2018-08-28T06:19:29.403Z,12.30
2018-08-28T06:21:57.315Z,10.03
2018-08-28T06:24:25.215Z,5.93
2018-08-28T06:26:53.968Z,5.57
2018-08-28T06:29:22.482Z,8.17
2018-08-28T06:31:50.466Z,8.17
2018-08-28T06:34:18.391Z,10.13
2018-08-28T06:36:46.294Z,6.70
2018-08-28T06:39:14.192Z,6.00
2018-08-28T06:41:43.915Z,8.67
2018-08-28T06:44:12.852Z,8.97
2018-08-28T06:46:41.007Z,7.47
2018-08-28T06:49:08.933Z,7.03
2018-08-28T06:51:36.917Z,7.57
2018-08-28T06:54:05.277Z,6.30
2018-08-28T06:56:34.116Z,7.23
2018-08-28T06:59:02.043Z,7.10
2018-08-28T07:01:29.943Z,7.33
2018-08-28T07:03:58.897Z,9.47
2018-08-28T07:06:26.798Z,11.70
2018-08-28T07:08:54.722Z,7.63
2018-08-28T07:11:23.460Z,6.40
2018-08-28T07:13:51.688Z,12.87
2018-08-28T07:16:19.598Z,7.80
2018-08-28T07:18:47.687Z,6.97
2018-08-28T07:21:15.588Z,8.10
2018-08-28T07:23:44.090Z,5.70
2018-08-28T07:26:12.109Z,6.40
2018-08-28T07:28:39.976Z,7.03
2018-08-28T07:31:07.869Z,6.73
2018-08-28T07:33:35.790Z,9.67
2018-08-28T07:36:03.755Z,12.53
2018-08-28T07:38:31.625Z,8.33
2018-08-28T07:40:59.529Z,6.37
2018-08-28T07:43:27.506Z,6.37
2018-08-28T07:45:55.477Z,13.73
2018-08-28T07:48:23.426Z,8.27
2018-08-28T07:50:51.945Z,8.07
2018-08-28T07:53:19.864Z,7.50
2018-08-28T07:55:48.515Z,8.33
2018-08-28T07:58:16.461Z,8.23
2018-08-28T08:00:44.407Z,6.63
2018-08-28T08:03:12.609Z,5.37
2018-08-28T08:05:40.511Z,6.40
2018-08-28T08:08:08.432Z,7.97
2018-08-28T08:10:36.371Z,7.63
2018-08-28T08:13:04.677Z,8.70
2018-08-28T08:15:33.427Z,5.53
2018-08-28T08:18:01.914Z,8.80
2018-08-28T08:20:29.828Z,6.03
2018-08-28T08:22:57.787Z,6.53
2018-08-28T08:25:25.980Z,8.23
2018-08-28T08:27:53.995Z,6.63
2018-08-28T08:30:22.051Z,6.53
2018-08-28T08:32:49.993Z,5.93
2018-08-28T08:35:17.969Z,6.90
2018-08-28T08:37:45.895Z,8.60
2018-08-28T08:40:13.819Z,8.53
2018-08-28T08:42:41.727Z,8.77
2018-08-28T08:45:09.649Z,7.30
2018-08-28T08:47:37.886Z,8.80
2018-08-28T08:50:06.433Z,6.83
2018-08-28T08:52:34.369Z,8.13
2018-08-28T08:55:02.412Z,12.13
2018-08-28T08:57:30.270Z,6.40
2018-08-28T08:59:58.907Z,6.00
2018-08-28T09:02:26.825Z,8.70
2018-08-28T09:04:54.748Z,6.93
2018-08-28T09:07:22.813Z,7.77
2018-08-28T09:09:51.599Z,6.30
2018-08-28T09:12:19.521Z,6.53
2018-08-28T09:14:47.462Z,7.27
2018-08-28T09:17:15.475Z,5.80
2018-08-28T09:19:43.400Z,6.57
2018-08-28T09:22:12.406Z,9.20
2018-08-28T09:24:40.477Z,8.03
2018-08-28T09:27:09.139Z,6.10
2018-08-28T09:29:37.044Z,6.53
2018-08-28T09:32:05.381Z,7.00
2018-08-28T09:34:33.262Z,6.23
2018-08-28T09:37:01.459Z,5.40
2018-08-28T09:39:30.191Z,7.90
2018-08-28T09:42:00.644Z,9.00
2018-08-28T09:44:28.552Z,8.63
2018-08-28T09:46:56.496Z,10.60
2018-08-28T09:49:24.412Z,11.13
2018-08-28T09:51:52.621Z,10.50
2018-08-28T09:54:21.325Z,7.43
2018-08-28T09:56:49.247Z,7.63
2018-08-28T09:59:17.774Z,13.27
2018-08-28T10:01:46.823Z,6.53
2018-08-28T10:04:15.930Z,11.07
2018-08-28T10:06:44.473Z,6.17
2018-08-28T10:09:13.759Z,7.70
2018-08-28T10:11:41.892Z,8.33
2018-08-28T10:14:11.291Z,7.40
2018-08-28T10:16:39.257Z,17.10
2018-08-28T10:19:07.232Z,8.17
2018-08-28T10:21:35.640Z,6.90
2018-08-28T10:24:03.601Z,6.20
2018-08-28T10:26:31.532Z,8.70
2018-08-28T10:28:59.741Z,8.07
2018-08-28T10:31:28.008Z,6.77
2018-08-28T10:33:55.901Z,8.13
2018-08-28T10:36:23.821Z,8.70
2018-08-28T10:38:52.248Z,7.73
2018-08-28T10:41:20.918Z,9.53
2018-08-28T10:43:49.180Z,6.80
2018-08-28T10:46:17.170Z,7.80
2018-08-28T10:48:45.070Z,8.73
2018-08-28T10:51:13.446Z,8.00
2018-08-28T10:53:42.204Z,8.40
2018-08-28T10:56:10.124Z,9.07
2018-08-28T10:58:38.220Z,9.17
2018-08-28T11:01:12.672Z,10.40
2018-08-28T11:03:40.743Z,9.83
2018-08-28T11:06:08.686Z,8.30
2018-08-28T11:08:36.890Z,9.70
2018-08-28T11:11:05.651Z,9.40
2018-08-28T11:13:34.259Z,11.83
2018-08-28T11:16:02.448Z,9.27
2018-08-28T11:18:30.362Z,12.33
2018-08-28T11:20:58.470Z,13.37
2018-08-28T11:23:26.755Z,11.43
2018-08-28T11:25:54.938Z,15.00
2018-08-28T11:28:22.862Z,15.60
2018-08-28T11:30:51.378Z,12.47
2018-08-28T11:33:19.864Z,9.77
2018-08-28T11:35:47.858Z,10.70
2018-08-28T11:38:15.772Z,11.23
2018-08-28T11:40:43.723Z,11.13
2018-08-28T11:43:12.524Z,10.00
2018-08-28T11:45:40.486Z,13.47
2018-08-28T11:48:08.378Z,9.30
2018-08-28T11:50:36.338Z,10.27
2018-08-28T11:53:04.305Z,10.17
2018-08-28T11:55:32.240Z,9.63
2018-08-28T11:58:00.462Z,9.70
2018-08-28T12:00:28.373Z,9.83
2018-08-28T12:02:56.277Z,12.97
2018-08-28T12:05:24.306Z,9.87
2018-08-28T12:07:52.339Z,8.90
2018-08-28T12:10:20.884Z,10.23
2018-08-28T12:12:48.765Z,9.20
2018-08-28T12:15:16.990Z,10.03
2018-08-28T12:17:44.930Z,11.27
2018-08-28T12:20:12.955Z,10.30
2018-08-28T12:22:40.842Z,19.90
2018-08-28T12:25:09.457Z,11.13
2018-08-28T12:27:37.621Z,9.80
2018-08-28T12:30:06.943Z,15.63
2018-08-28T12:32:35.012Z,9.90
2018-08-28T12:35:03.055Z,10.00
2018-08-28T12:37:31.563Z,9.70
2018-08-28T12:39:59.475Z,8.70
2018-08-28T12:42:28.208Z,9.30
2018-08-28T12:44:56.847Z,10.30
2018-08-28T12:47:24.722Z,9.67
2018-08-28T12:49:52.674Z,10.93
2018-08-28T12:52:20.587Z,9.33
2018-08-28T12:54:48.637Z,9.07
2018-08-28T12:57:17.496Z,9.50
2018-08-28T12:59:45.442Z,8.93
2018-08-28T13:02:13.437Z,12.47
2018-08-28T13:04:41.338Z,11.13
2018-08-28T13:07:09.302Z,8.17
2018-08-28T13:09:37.723Z,9.90
2018-08-28T13:12:05.682Z,8.30
2018-08-28T13:14:34.861Z,11.47
2018-08-28T13:17:03.061Z,11.80
2018-08-28T13:19:31.231Z,9.67
2018-08-28T13:21:59.179Z,8.83
2018-08-28T13:24:27.093Z,8.80
2018-08-28T13:26:54.963Z,9.63
2018-08-28T13:29:22.868Z,9.33
2018-08-28T13:31:50.745Z,10.10
2018-08-28T13:34:18.844Z,12.20
2018-08-28T13:36:47.510Z,11.43
2018-08-28T13:39:16.101Z,9.03
2018-08-28T13:41:44.077Z,9.83
2018-08-28T13:44:12.560Z,12.93
2018-08-28T13:46:40.545Z,10.77
2018-08-28T13:49:09.058Z,17.20
2018-08-28T13:51:37.399Z,10.30
2018-08-28T13:54:05.396Z,10.07
2018-08-28T13:56:33.294Z,9.80
2018-08-28T13:59:01.513Z,9.97
2018-08-28T14:01:29.448Z,15.17
2018-08-28T14:03:58.467Z,12.13
2018-08-28T14:06:26.498Z,12.27
2018-08-28T14:08:54.541Z,10.40
2018-08-28T14:11:22.444Z,8.90
2018-08-28T14:13:50.407Z,8.03
2018-08-28T14:16:18.422Z,9.67
2018-08-28T14:18:46.347Z,8.60
2018-08-28T14:21:14.249Z,9.40
2018-08-28T14:23:43.164Z,8.83
2018-08-28T14:26:11.298Z,8.60
2018-08-28T14:28:39.214Z,12.63
2018-08-28T14:31:07.211Z,9.87
2018-08-28T14:33:35.127Z,11.60
2018-08-28T14:36:03.059Z,10.40
2018-08-28T14:38:31.040Z,10.10
2018-08-28T14:40:59.218Z,8.27
2018-08-28T14:43:27.163Z,10.70
2018-08-28T14:45:55.094Z,8.33
2018-08-28T14:48:23.221Z,9.87
2018-08-28T14:50:51.121Z,9.83
2018-08-28T14:53:19.060Z,9.00
2018-08-28T14:55:46.984Z,9.03
2018-08-28T14:58:14.895Z,9.27
2018-08-28T15:00:43.023Z,11.13
2018-08-28T15:03:10.947Z,13.63
2018-08-28T15:05:38.854Z,9.23
2018-08-28T15:08:06.759Z,11.20
2018-08-28T15:10:34.746Z,11.03
2018-08-28T15:13:03.462Z,14.23
2018-08-28T15:15:31.371Z,8.87
2018-08-28T15:17:59.304Z,11.80
2018-08-28T15:20:27.208Z,9.10
2018-08-28T15:22:55.147Z,13.23
2018-08-28T15:25:23.589Z,9.30
2018-08-28T15:27:51.525Z,9.60
2018-08-28T15:30:19.542Z,12.20
2018-08-28T15:32:47.537Z,9.90
2018-08-28T15:35:15.636Z,8.93
2018-08-28T15:37:43.826Z,11.43
2018-08-28T15:40:12.159Z,9.37
2018-08-28T15:42:40.098Z,10.03
2018-08-28T15:45:08.250Z,8.23
2018-08-28T15:47:36.663Z,12.30
2018-08-28T15:50:04.688Z,10.33
2018-08-28T15:52:33.052Z,9.37
2018-08-28T15:55:01.156Z,8.27
2018-08-28T15:57:29.061Z,9.20
2018-08-28T15:59:57.248Z,9.63
2018-08-28T16:02:25.235Z,8.47
2018-08-28T16:04:53.245Z,16.10
2018-08-28T16:07:21.163Z,10.40
2018-08-28T16:09:49.093Z,12.10
2018-08-28T16:12:17.797Z,11.87
2018-08-28T16:14:45.815Z,9.47
2018-08-28T16:17:13.722Z,12.50
2018-08-28T16:19:41.664Z,15.60
2018-08-28T16:22:10.227Z,22.83
2018-08-28T16:24:38.744Z,13.30
2018-08-28T16:27:06.665Z,13.30
2018-08-28T16:29:34.634Z,10.90
2018-08-28T16:32:03.282Z,23.17
2018-08-28T16:34:31.375Z,10.07
2018-08-28T16:36:59.347Z,16.83
2018-08-28T16:39:27.603Z,11.47
2018-08-28T16:41:56.527Z,11.23
2018-08-28T16:44:24.690Z,11.43
2018-08-28T16:46:52.722Z,10.20
2018-08-28T16:49:20.615Z,13.93
2018-08-28T16:51:48.891Z,10.50
2018-08-28T16:54:16.807Z,10.00
2018-08-28T16:56:44.766Z,11.27
2018-08-28T16:59:12.997Z,11.43
2018-08-28T17:01:41.046Z,14.57
2018-08-28T17:04:08.876Z,13.70
2018-08-28T17:06:37.348Z,15.57
2018-08-28T17:09:06.036Z,9.93
2018-08-28T17:11:33.998Z,9.80
2018-08-28T17:14:01.945Z,13.03
2018-08-28T17:16:29.856Z,14.37
2018-08-28T17:18:57.744Z,12.00
2018-08-28T17:21:25.648Z,14.23
2018-08-28T17:23:53.610Z,22.50
2018-08-28T17:26:21.506Z,12.67
2018-08-28T17:28:49.686Z,21.57
2018-08-28T17:31:17.603Z,21.13
2018-08-28T17:33:45.584Z,14.30
2018-08-28T17:36:13.564Z,15.00
2018-08-28T17:38:41.461Z,14.53
2018-08-28T17:41:09.403Z,19.50
2018-08-28T17:43:37.559Z,18.40
2018-08-28T17:46:05.517Z,18.40
2018-08-28T17:48:33.439Z,38.77
2018-08-28T17:51:01.313Z,25.77
2018-08-28T17:53:29.221Z,32.33
2018-08-28T17:55:57.111Z,16.57
2018-08-28T17:58:25.037Z,20.10
2018-08-28T18:00:52.954Z,16.20
2018-08-28T18:03:20.897Z,19.93
2018-08-28T18:05:50.459Z,19.33
2018-08-28T18:08:18.384Z,15.30
2018-08-28T18:10:46.367Z,11.60
2018-08-28T18:13:14.252Z,16.70
2018-08-28T18:15:42.208Z,11.10
2018-08-28T18:18:10.786Z,19.33
2018-08-28T18:20:39.381Z,15.17
2018-08-28T18:23:07.468Z,16.63
2018-08-28T18:25:35.381Z,10.37
2018-08-28T18:28:03.306Z,15.73
2018-08-28T18:30:31.218Z,12.03
2018-08-28T18:32:59.618Z,15.73
2018-08-28T18:35:28.487Z,13.80
2018-08-28T18:37:56.704Z,19.40
2018-08-28T18:40:24.674Z,18.40
2018-08-28T18:42:52.561Z,18.73
2018-08-28T18:45:20.833Z,14.70
2018-08-28T18:47:48.697Z,14.63
2018-08-28T18:50:16.623Z,13.90
2018-08-28T18:52:44.507Z,15.93
2018-08-28T18:55:12.410Z,19.73
2018-08-28T18:57:40.288Z,16.60
2018-08-28T19:00:08.867Z,14.80
2018-08-28T19:02:36.866Z,16.03
2018-08-28T19:05:04.867Z,16.73
2018-08-28T19:07:32.811Z,13.70
2018-08-28T19:10:00.727Z,24.93
2018-08-28T19:12:29.443Z,14.30
2018-08-28T19:14:57.333Z,16.50
2018-08-28T19:17:25.818Z,17.10
2018-08-28T19:19:53.743Z,18.40
2018-08-28T19:22:22.460Z,12.90
2018-08-28T19:24:50.340Z,14.87
2018-08-28T19:27:18.223Z,16.47
2018-08-28T19:29:46.715Z,19.80
2018-08-28T19:32:14.607Z,14.33
2018-08-28T19:34:42.986Z,13.10
2018-08-28T19:37:11.410Z,13.83
2018-08-28T19:39:39.373Z,19.83
2018-08-28T19:42:07.297Z,14.83
2018-08-28T19:44:36.744Z,12.87
2018-08-28T19:47:04.822Z,22.07
2018-08-28T19:49:32.731Z,13.50
2018-08-28T19:52:00.695Z,17.30
2018-08-28T19:54:29.300Z,15.63
2018-08-28T19:56:57.286Z,15.43
2018-08-28T19:59:25.168Z,16.53
2018-08-28T20:01:53.402Z,12.60
2018-08-28T20:04:21.324Z,15.83
2018-08-28T20:06:50.219Z,18.60
2018-08-28T20:09:18.126Z,13.87
2018-08-28T20:11:46.062Z,16.50
2018-08-28T20:14:15.709Z,16.87
2018-08-28T20:16:44.268Z,16.10
2018-08-28T20:19:12.214Z,19.43
2018-08-28T20:21:40.150Z,16.20
2018-08-28T20:24:08.056Z,15.00
2018-08-28T20:26:35.978Z,13.80
2018-08-28T20:29:04.106Z,18.53
2018-08-28T20:31:32.039Z,17.90
2018-08-28T20:34:00.592Z,13.80
2018-08-28T20:36:28.569Z,14.80
2018-08-28T20:38:57.070Z,13.10
2018-08-28T20:41:25.045Z,15.40
2018-08-28T20:43:52.987Z,18.23
2018-08-28T20:46:20.891Z,16.23
2018-08-28T20:48:48.785Z,18.30
2018-08-28T20:51:17.022Z,16.53
2018-08-28T20:53:45.014Z,13.93
2018-08-28T20:56:12.844Z,16.50
2018-08-28T20:58:40.710Z,13.67
2018-08-28T21:01:08.600Z,19.00
2018-08-28T21:03:36.514Z,16.43
2018-08-28T21:06:04.615Z,17.83
2018-08-28T21:08:33.444Z,23.77
2018-08-28T21:11:01.408Z,13.93
2018-08-28T21:13:29.373Z,16.80
2018-08-28T21:15:57.267Z,15.17
2018-08-28T21:18:25.155Z,17.23
2018-08-28T21:20:53.103Z,14.83
2018-08-28T21:23:21.016Z,14.60
2018-08-28T21:25:49.282Z,14.13
2018-08-28T21:28:17.141Z,17.30
2018-08-28T21:30:45.321Z,16.73
2018-08-28T21:33:13.344Z,16.43
2018-08-28T21:35:41.503Z,14.40
2018-08-28T21:38:09.484Z,19.60
2018-08-28T21:40:37.463Z,13.90
2018-08-28T21:43:05.405Z,13.87
2018-08-28T21:45:33.917Z,15.70
2018-08-28T21:48:02.584Z,15.10
2018-08-28T21:50:30.501Z,19.03
2018-08-28T21:52:58.416Z,16.47
2018-08-28T21:55:26.289Z,17.93
2018-08-28T21:57:54.524Z,16.50
2018-08-28T22:00:23.509Z,12.97
2018-08-28T22:02:51.663Z,15.33
2018-08-28T22:05:24.359Z,14.47
2018-08-28T22:07:57.543Z,17.70
2018-08-28T22:10:25.663Z,15.73
2018-08-28T22:12:53.546Z,18.00
2018-08-28T22:15:21.450Z,18.00
2018-08-28T22:17:49.342Z,16.23
2018-08-28T22:20:17.511Z,16.97
2018-08-28T22:22:45.444Z,16.60
2018-08-28T22:25:13.444Z,20.97
2018-08-28T22:27:41.349Z,20.20
2018-08-28T22:30:10.059Z,13.83
2018-08-28T22:32:38.590Z,17.17
2018-08-28T22:35:06.517Z,14.53
2018-08-28T22:37:34.720Z,25.77
2018-08-28T22:40:03.287Z,14.40
2018-08-28T22:42:31.243Z,17.20
2018-08-28T22:44:59.102Z,20.23
2018-08-28T22:47:26.973Z,13.30
2018-08-28T22:49:54.834Z,15.67
2018-08-28T22:52:22.757Z,14.07
2018-08-28T22:54:50.636Z,19.90
2018-08-28T22:57:18.495Z,17.33
2018-08-28T22:59:47.153Z,16.97
2018-08-28T23:02:17.241Z,21.07
2018-08-28T23:04:45.151Z,14.80
2018-08-28T23:07:13.082Z,14.77
2018-08-28T23:09:40.965Z,16.53
2018-08-28T23:12:08.866Z,16.60
2018-08-28T23:14:36.767Z,15.57
2018-08-28T23:17:04.604Z,14.17
2018-08-28T23:19:33.692Z,18.67
2018-08-28T23:22:01.707Z,15.50
2018-08-28T23:24:29.618Z,14.40
2018-08-28T23:26:57.632Z,18.70
2018-08-28T23:29:25.489Z,16.23
2018-08-28T23:31:53.919Z,18.70
2018-08-28T23:34:22.511Z,19.60
2018-08-28T23:36:50.432Z,16.70
2018-08-28T23:39:18.598Z,14.87
2018-08-28T23:41:46.459Z,16.83
2018-08-28T23:44:14.351Z,15.87
2018-08-28T23:46:42.297Z,19.10
2018-08-28T23:49:10.223Z,14.17
2018-08-28T23:51:38.186Z,16.50
2018-08-28T23:54:06.117Z,14.47
2018-08-28T23:56:33.987Z,17.57
2018-08-28T23:59:01.894Z,15.30
